Rhyolite, Nevada
Current Conditions -  °F | °C
As of 11:52 AM on Sunday 21 Dec 2014 (Local Time) from KDRA Reporting Station
Clear Clear  
Wind Chill: 50°   Ceiling: Unl
Heat Index: 50°   Visibility: 10mi
Dew Point: 38°   Wind: 7mph
Humidity: 63%   Direction: 220°SW
Pressure: 30.15"   Gusts: NA
Location:  36.9096°N, 116.761°W
Report Text: KDRA 211952Z AUTO 22006KT 10SM CLR 10/03 A3015 RMK AO2 SLP200 T01000033 $
Loading
Personal Weather Stations






























Interactive Weather Map New forecast layout! Learn more

10-Day Weather Forecast

Advertisements
Track Severe Weather on mobile